sensor_id;sensor_type;location;lat;lon;timestamp;pressure;altitude;pressure_sealevel;temperature;humidity
78223;BME280;67497;53.058;21.618;2023-02-01T16:25:21;98914.63;;;20.57;41.18
78223;BME280;67497;53.058;21.618;2023-02-01T16:27:48;98920.78;;;20.59;41.07
78223;BME280;67497;53.058;21.618;2023-02-01T16:30:13;98924.75;;;20.63;40.87
78223;BME280;67497;53.058;21.618;2023-02-01T17:16:32;98924.56;;;23.50;34.59
78223;BME280;67497;53.058;21.618;2023-02-01T17:19:02;98923.84;;;23.65;34.30
78223;BME280;67497;53.058;21.618;2023-02-01T17:21:30;98916.88;;;23.77;33.94
78223;BME280;67497;53.058;21.618;2023-02-01T17:24:00;98918.88;;;23.87;33.38
78223;BME280;67497;53.058;21.618;2023-02-01T17:26:26;98917.53;;;23.95;33.35
78223;BME280;67497;53.058;21.618;2023-02-01T17:28:52;98917.53;;;24.00;33.26
78223;BME280;67497;53.058;21.618;2023-02-01T17:31:17;98927.66;;;24.06;32.74
78223;BME280;67497;53.058;21.618;2023-02-01T17:33:43;98925.16;;;24.09;32.44
78223;BME280;67497;53.058;21.618;2023-02-01T17:36:12;98933.56;;;24.14;32.76
78223;BME280;67497;53.058;21.618;2023-02-01T17:38:39;98931.06;;;24.18;32.30
78223;BME280;67497;53.058;21.618;2023-02-01T17:41:05;98928.81;;;24.20;32.65
78223;BME280;67497;53.058;21.618;2023-02-01T17:43:30;98921.84;;;24.22;32.54
78223;BME280;67497;53.058;21.618;2023-02-01T17:46:03;98922.44;;;24.29;32.74
78223;BME280;67497;53.058;21.618;2023-02-01T17:48:29;98924.13;;;24.35;32.58
78223;BME280;67497;53.058;21.618;2023-02-01T17:50:55;98922.75;;;24.43;32.49
78223;BME280;67497;53.058;21.618;2023-02-01T17:53:27;98924.69;;;24.53;32.42
78223;BME280;67497;53.058;21.618;2023-02-01T17:55:54;98926.69;;;24.62;32.48
78223;BME280;67497;53.058;21.618;2023-02-01T17:58:23;98927.53;;;24.73;32.04
78223;BME280;67497;53.058;21.618;2023-02-01T18:00:49;98920.25;;;24.77;32.18
78223;BME280;67497;53.058;21.618;2023-02-01T18:05:48;98930.66;;;25.02;32.63
78223;BME280;67497;53.058;21.618;2023-02-01T18:08:16;98925.34;;;25.10;32.36
78223;BME280;67497;53.058;21.618;2023-02-01T18:10:43;98931.22;;;25.19;31.88
78223;BME280;67497;53.058;21.618;2023-02-01T18:13:10;98929.25;;;25.24;32.07
78223;BME280;67497;53.058;21.618;2023-02-01T18:15:36;98928.94;;;25.31;31.96
78223;BME280;67497;53.058;21.618;2023-02-01T18:18:05;98921.09;;;25.33;31.87
78223;BME280;67497;53.058;21.618;2023-02-01T18:20:31;98928.09;;;25.40;31.75
78223;BME280;67497;53.058;21.618;2023-02-01T18:22:57;98923.59;;;25.44;31.68
78223;BME280;67497;53.058;21.618;2023-02-01T18:25:25;98926.41;;;25.49;31.27
78223;BME280;67497;53.058;21.618;2023-02-01T18:27:53;98924.72;;;25.53;31.23
78223;BME280;67497;53.058;21.618;2023-02-01T18:30:22;98918.25;;;25.58;31.44
78223;BME280;67497;53.058;21.618;2023-02-01T18:32:48;98922.47;;;25.61;30.98
78223;BME280;67497;53.058;21.618;2023-02-01T18:35:23;98930.03;;;25.65;31.01
78223;BME280;67497;53.058;21.618;2023-02-01T18:37:50;98925.81;;;25.68;30.74
78223;BME280;67497;53.058;21.618;2023-02-01T18:40:19;98928.06;;;25.71;30.75
78223;BME280;67497;53.058;21.618;2023-02-01T18:42:45;98930.84;;;25.76;30.67
78223;BME280;67497;53.058;21.618;2023-02-01T18:47:45;98922.41;;;25.81;30.79
78223;BME280;67497;53.058;21.618;2023-02-01T18:50:11;98927.44;;;25.84;30.54
78223;BME280;67497;53.058;21.618;2023-02-01T18:52:37;98920.44;;;25.86;30.68
78223;BME280;67497;53.058;21.618;2023-02-01T18:55:03;98927.97;;;25.91;30.74
78223;BME280;67497;53.058;21.618;2023-02-01T18:57:29;98926.84;;;25.97;30.46
78223;BME280;67497;53.058;21.618;2023-02-01T18:59:54;98928.47;;;26.08;30.19
78223;BME280;67497;53.058;21.618;2023-02-01T19:02:20;98922.84;;;26.18;30.17
78223;BME280;67497;53.058;21.618;2023-02-01T19:04:46;98919.63;;;26.40;29.68
78223;BME280;67497;53.058;21.618;2023-02-01T19:07:12;98926.53;;;26.57;29.44
78223;BME280;67497;53.058;21.618;2023-02-01T19:09:37;98928.94;;;26.74;29.23
78223;BME280;67497;53.058;21.618;2023-02-01T19:12:03;98925.47;;;26.92;28.94
78223;BME280;67497;53.058;21.618;2023-02-01T19:14:29;98926.19;;;27.08;28.61
78223;BME280;67497;53.058;21.618;2023-02-01T19:16:54;98926.59;;;27.25;28.33
78223;BME280;67497;53.058;21.618;2023-02-01T19:19:23;98921.69;;;27.41;28.23
78223;BME280;67497;53.058;21.618;2023-02-01T19:21:49;98923.78;;;27.54;27.93
78223;BME280;67497;53.058;21.618;2023-02-01T19:24:15;98927.00;;;27.66;27.75
78223;BME280;67497;53.058;21.618;2023-02-01T19:26:41;98931.41;;;27.77;27.76
78223;BME280;67497;53.058;21.618;2023-02-01T19:29:08;98933.81;;;27.88;27.76
78223;BME280;67497;53.058;21.618;2023-02-01T19:31:34;98921.34;;;27.95;27.49
78223;BME280;67497;53.058;21.618;2023-02-01T19:34:00;98927.75;;;28.00;27.33
78223;BME280;67497;53.058;21.618;2023-02-01T19:36:26;98921.56;;;28.03;27.35
78223;BME280;67497;53.058;21.618;2023-02-01T19:38:52;98920.72;;;28.03;27.11
78223;BME280;67497;53.058;21.618;2023-02-01T19:41:18;98923.53;;;28.03;27.23
78223;BME280;67497;53.058;21.618;2023-02-01T19:43:44;98926.34;;;28.03;27.09
78223;BME280;67497;53.058;21.618;2023-02-01T19:46:11;98931.41;;;28.01;26.83
78223;BME280;67497;53.058;21.618;2023-02-01T19:48:36;98920.19;;;27.96;27.29
78223;BME280;67497;53.058;21.618;2023-02-01T19:51:02;98926.19;;;27.89;27.15
78223;BME280;67497;53.058;21.618;2023-02-01T19:53:32;98921.75;;;27.83;27.63
78223;BME280;67497;53.058;21.618;2023-02-01T19:55:58;98915.16;;;27.69;27.50
78223;BME280;67497;53.058;21.618;2023-02-01T19:58:26;98913.84;;;27.61;27.45
78223;BME280;67497;53.058;21.618;2023-02-01T20:00:53;98930.16;;;27.64;27.52
78223;BME280;67497;53.058;21.618;2023-02-01T20:03:19;98926.53;;;27.59;27.56
78223;BME280;67497;53.058;21.618;2023-02-01T20:05:44;98929.69;;;27.52;27.82
78223;BME280;67497;53.058;21.618;2023-02-01T20:08:10;98932.88;;;27.46;27.81
78223;BME280;67497;53.058;21.618;2023-02-01T20:10:42;98930.38;;;27.39;27.70
78223;BME280;67497;53.058;21.618;2023-02-01T20:13:09;98938.31;;;27.32;27.96
78223;BME280;67497;53.058;21.618;2023-02-01T20:15:34;98940.34;;;27.26;27.93
78223;BME280;67497;53.058;21.618;2023-02-01T20:18:00;98932.81;;;27.22;28.08
78223;BME280;67497;53.058;21.618;2023-02-01T20:20:26;98934.81;;;27.16;28.13
78223;BME280;67497;53.058;21.618;2023-02-01T20:22:54;98930.06;;;27.12;28.13
78223;BME280;67497;53.058;21.618;2023-02-01T20:25:21;98926.19;;;27.08;28.20
78223;BME280;67497;53.058;21.618;2023-02-01T20:27:46;98937.47;;;27.03;28.46
78223;BME280;67497;53.058;21.618;2023-02-01T20:30:12;98937.50;;;26.98;28.32
78223;BME280;67497;53.058;21.618;2023-02-01T20:32:45;98925.16;;;26.94;28.24
78223;BME280;67497;53.058;21.618;2023-02-01T20:35:11;98924.09;;;26.90;28.49
78223;BME280;67497;53.058;21.618;2023-02-01T20:37:37;98927.47;;;26.87;28.66
78223;BME280;67497;53.058;21.618;2023-02-01T20:40:03;98925.53;;;26.77;28.38
78223;BME280;67497;53.058;21.618;2023-02-01T22:26:22;98926.66;;;25.63;30.48
78223;BME280;67497;53.058;21.618;2023-02-01T22:28:48;98943.84;;;25.46;30.47
78223;BME280;67497;53.058;21.618;2023-02-01T22:31:14;98940.72;;;25.38;31.05
78223;BME280;67497;53.058;21.618;2023-02-01T22:33:39;98932.59;;;25.26;31.33
78223;BME280;67497;53.058;21.618;2023-02-01T22:36:05;98943.28;;;25.19;32.17
78223;BME280;67497;53.058;21.618;2023-02-01T22:38:33;98934.28;;;25.12;32.50
78223;BME280;67497;53.058;21.618;2023-02-01T22:41:02;98938.22;;;25.06;32.81
78223;BME280;67497;53.058;21.618;2023-02-01T22:43:29;98936.56;;;25.00;32.99
78223;BME280;67497;53.058;21.618;2023-02-01T22:45:58;98940.16;;;24.95;33.11
78223;BME280;67497;53.058;21.618;2023-02-01T22:48:25;98945.53;;;24.92;33.46
78223;BME280;67497;53.058;21.618;2023-02-01T22:50:56;98924.19;;;25.06;33.64
78223;BME280;67497;53.058;21.618;2023-02-01T22:53:22;98929.81;;;25.01;32.73
78223;BME280;67497;53.058;21.618;2023-02-01T22:55:48;98929.81;;;25.01;32.72
78223;BME280;67497;53.058;21.618;2023-02-01T22:58:13;98941.00;;;25.01;32.73
78223;BME280;67497;53.058;21.618;2023-02-01T23:00:39;98939.06;;;25.02;32.40
78223;BME280;67497;53.058;21.618;2023-02-01T23:03:06;98931.78;;;25.01;32.35
78223;BME280;67497;53.058;21.618;2023-02-01T23:05:31;98934.84;;;24.99;32.51
78223;BME280;67497;53.058;21.618;2023-02-01T23:07:57;98935.16;;;24.98;32.71
78223;BME280;67497;53.058;21.618;2023-02-01T23:10:23;98933.47;;;24.96;32.54
78223;BME280;67497;53.058;21.618;2023-02-01T23:12:48;98938.78;;;24.93;32.78
78223;BME280;67497;53.058;21.618;2023-02-01T23:15:14;98934.31;;;24.92;32.68
78223;BME280;67497;53.058;21.618;2023-02-01T23:17:43;98927.88;;;24.86;32.57
78223;BME280;67497;53.058;21.618;2023-02-01T23:20:14;98926.47;;;24.84;32.78
78223;BME280;67497;53.058;21.618;2023-02-01T23:22:41;98925.31;;;24.80;32.94
78223;BME280;67497;53.058;21.618;2023-02-01T23:25:07;98930.06;;;24.74;33.11
78223;BME280;67497;53.058;21.618;2023-02-01T23:27:32;98926.13;;;24.70;33.21
78223;BME280;67497;53.058;21.618;2023-02-01T23:29:58;98921.94;;;24.68;33.53
78223;BME280;67497;53.058;21.618;2023-02-01T23:32:23;98921.66;;;24.64;33.73
78223;BME280;67497;53.058;21.618;2023-02-01T23:34:49;98919.69;;;24.60;33.68
78223;BME280;67497;53.058;21.618;2023-02-01T23:37:15;98925.84;;;24.57;33.45
78223;BME280;67497;53.058;21.618;2023-02-01T23:39:40;98924.44;;;24.54;33.56
78223;BME280;67497;53.058;21.618;2023-02-01T23:42:06;98921.34;;;24.51;33.74
78223;BME280;67497;53.058;21.618;2023-02-01T23:44:31;98932.00;;;24.49;33.56
78223;BME280;67497;53.058;21.618;2023-02-01T23:46:57;98922.19;;;24.46;33.52
78223;BME280;67497;53.058;21.618;2023-02-01T23:49:23;98923.59;;;24.44;33.63
78223;BME280;67497;53.058;21.618;2023-02-01T23:51:49;98921.59;;;24.39;34.07
78223;BME280;67497;53.058;21.618;2023-02-01T23:54:21;98914.31;;;24.33;34.07
